Terminal Aerodrome Forecast
Issued by NWS

Home | Current Version | Previous Version | Text Only | Print | Product List | Glossary Off
Versions: 1 2 3 4 5 6 7 8 9 10 11 12 13 14 15 16 17 18 19 20 21 22 23 24

586
FTUS43 KBIS 300522
TAFJMS
TAF
KJMS 300522Z 3006/3106 21004KT P6SM FEW250
     FM301900 16011KT P6SM SCT050
     FM302100 15012KT P6SM VCTS BKN090CB
     FM310000 11009KT 5SM SHRA VCTS OVC050CB
     FM310500 36007KT P6SM SHRA VCTS BKN015CB=

USA.gov is the U.S. government's official web portal to all federal, state and local government web resources and services.